Johns Pass, Florida
Current Conditions -  °F | °C
As of 1:53 AM on Wednesday 22 Oct 2014 (Local Time) from KPIE Reporting Station
Clear Clear  
Wind Chill: 73°   Ceiling: Unl
Heat Index: 73°   Visibility: 10mi
Dew Point: 68°   Wind: 6mph
Humidity: 84%   Direction: 350°N
Pressure: 29.95"   Gusts: NA
Location:  27.8164°N, 82.7802°W
Report Text: KPIE 220553Z AUTO 35005KT 10SM CLR 23/20 A2995 RMK AO2 SLP140 T02280200 10244 20222 56007 $
Loading
Personal Weather Stations






























Interactive Weather Map
Tropical Storm Tracking
New forecast layout! Learn more

10-Day Weather Forecast

Advertisements
Track Severe Weather on mobile